| time (UTC) | temp F | wind direction | speed knots | gust knots | rain 1hr in | rain 24hr in | rain mn in | humidity % | barometer mb |
| 20260509032244 | 58 | 155 | 3.5 | 5.2 | 0.00 | 0.00 | 0.00 | 65 | 1010.4 |
| 20260509031742 | 58 | 166 | 0.9 | 2.6 | 0.00 | 0.00 | 0.00 | 65 | 1010.8 |
| 20260509031240 | 58 | 153 | 0.9 | 1.7 | 0.00 | 0.00 | 0.00 | 64 | 1010.9 |
| 20260509030737 | 58 | 190 | 1.7 | 1.7 | 0.00 | 0.00 | 0.00 | 65 | 1010.8 |
| 20260509030235 | 58 | 159 | 0.9 | 2.6 | 0.00 | 0.00 | 0.00 | 64 | 1011.0 |
| 20260509025732 | 58 | 163 | 1.7 | 1.7 | 0.00 | 0.00 | 0.00 | 62 | 1010.9 |
| 20260509025227 | 58 | 147 | 1.7 | 2.6 | 0.00 | 0.00 | 0.00 | 62 | 1010.8 |
| 20260509024722 | 58 | 159 | 0.9 | 2.6 | 0.00 | 0.00 | 0.00 | 63 | 1011.0 |
| 20260509024218 | 58 | 156 | 1.7 | 1.7 | 0.00 | 0.00 | 0.00 | 62 | 1010.9 |
| 20260509023716 | 58 | 141 | 1.7 | 1.7 | 0.00 | 0.00 | 0.00 | 61 | 1010.8 |
| 20260509023213 | 59 | 131 | 0.0 | 0.9 | 0.00 | 0.00 | 0.00 | 60 | 1011.0 |
| 20260509022709 | 59 | 118 | 0.9 | 2.6 | 0.00 | 0.00 | 0.00 | 59 | 1011.1 |
| 20260509022207 | 58 | 142 | 2.6 | 2.6 | 0.00 | 0.00 | 0.00 | 59 | 1010.9 |
| 20260509021704 | 58 | 143 | 0.0 | 0.9 | 0.00 | 0.00 | 0.00 | 61 | 1011.0 |
| 20260509021201 | 58 | 146 | 0.0 | 0.9 | 0.00 | 0.00 | 0.00 | 60 | 1011.1 |
| 20260509020659 | 58 | 139 | 0.0 | 0.9 | 0.00 | 0.00 | 0.00 | 61 | 1010.7 |
| 20260509020156 | 58 | 156 | 0.9 | 1.7 | 0.00 | 0.00 | 0.00 | 63 | 1011.0 |
| 20260509015654 | 58 | 139 | 0.0 | 0.0 | 0.00 | 0.00 | 0.00 | 64 | 1010.9 |
| 20260509015152 | 58 | 147 | 0.0 | 0.9 | 0.00 | 0.00 | 0.00 | 62 | 1011.1 |
| 20260509014648 | 59 | 141 | 0.9 | 0.9 | 0.00 | 0.00 | 0.00 | 60 | 1010.8 |
| 20260509014144 | 58 | 133 | 0.0 | 0.9 | 0.00 | 0.00 | 0.00 | 61 | 1010.8 |
| 20260509013642 | 58 | 137 | 0.0 | 0.0 | 0.00 | 0.00 | 0.00 | 61 | 1010.8 |
| 20260509013138 | 58 | 133 | 0.0 | 0.0 | 0.00 | 0.00 | 0.00 | 61 | 1010.9 |
| 20260509012634 | 57 | 138 | 0.0 | 0.0 | 0.00 | 0.00 | 0.00 | 61 | 1010.6 |
| 20260509012131 | 57 | 150 | 0.0 | 0.0 | 0.00 | 0.00 | 0.00 | 60 | 1010.7 |
| 20260509011629 | 58 | 150 | 0.0 | 0.0 | 0.00 | 0.00 | 0.00 | 59 | 1010.8 |
| 20260509011126 | 59 | 150 | 0.0 | 0.0 | 0.00 | 0.00 | 0.00 | 61 | 1010.9 |
| 20260509010624 | 59 | 151 | 0.0 | 0.0 | 0.00 | 0.00 | 0.00 | 55 | 1011.0 |
| 20260509010120 | 60 | 144 | 0.0 | 0.0 | 0.00 | 0.00 | 0.00 | 56 | 1010.8 |
| 20260509005618 | 61 | 143 | 0.0 | 0.0 | 0.00 | 0.00 | 0.00 | 55 | 1010.9 |
| 20260509005114 | 61 | 146 | 0.0 | 0.0 | 0.00 | 0.00 | 0.00 | 55 | 1010.7 |
| 20260509004610 | 61 | 146 | 0.0 | 0.0 | 0.00 | 0.00 | 0.00 | 55 | 1010.6 |
| 20260509004107 | 62 | 145 | 0.0 | 0.0 | 0.00 | 0.00 | 0.00 | 54 | 1010.8 |
| 20260509003605 | 63 | 160 | 0.0 | 0.0 | 0.00 | 0.00 | 0.00 | 51 | 1011.0 |
| 20260509003102 | 64 | 160 | 0.0 | 0.0 | 0.00 | 0.00 | 0.00 | 51 | 1010.7 |
| 20260509002600 | 64 | 160 | 0.0 | 0.0 | 0.00 | 0.00 | 0.00 | 49 | 1011.0 |
| 20260509002057 | 65 | 159 | 0.0 | 0.0 | 0.00 | 0.00 | 0.00 | 49 | 1010.9 |
| 20260509001554 | 66 | 151 | 0.0 | 0.9 | 0.00 | 0.00 | 0.00 | 48 | 1010.7 |
| 20260509001050 | 66 | 165 | 0.9 | 0.9 | 0.00 | 0.00 | 0.00 | 47 | 1010.9 |
| 20260509000549 | 66 | 203 | 1.7 | 1.7 | 0.00 | 0.00 | 0.00 | 46 | 1010.8 |
| 20260509000044 | 67 | 206 | 1.7 | 2.6 | 0.00 | 0.00 | 0.00 | 44 | 1010.8 |
| 20260508235542 | 67 | 201 | 1.7 | 1.7 | 0.00 | 0.00 | 0.00 | 44 | 1010.6 |
| 20260508235038 | 68 | 250 | 2.6 | 2.6 | 0.00 | 0.00 | 0.00 | 44 | 1010.7 |
| 20260508234536 | 68 | 131 | 1.7 | 2.6 | 0.00 | 0.00 | 0.00 | 42 | 1010.8 |
| 20260508234033 | 68 | 209 | 1.7 | 2.6 | 0.00 | 0.00 | 0.00 | 42 | 1010.7 |
| 20260508233532 | 68 | 199 | 2.6 | 2.6 | 0.00 | 0.00 | 0.00 | 44 | 1010.5 |
| 20260508233029 | 68 | 213 | 1.7 | 2.6 | 0.00 | 0.00 | 0.00 | 44 | 1010.7 |
| 20260508232526 | 68 | 222 | 1.7 | 4.3 | 0.00 | 0.00 | 0.00 | 43 | 1010.7 |
| 20260508232023 | 68 | 287 | 2.6 | 4.3 | 0.00 | 0.00 | 0.00 | 43 | 1010.7 |
| 20260508231520 | 68 | 245 | 4.3 | 5.2 | 0.00 | 0.00 | 0.00 | 42 | 1010.5 |
| 20260508231017 | 68 | 157 | 2.6 | 4.3 | 0.00 | 0.00 | 0.00 | 42 | 1010.9 |
| 20260508230514 | 68 | 218 | 2.6 | 5.2 | 0.00 | 0.00 | 0.00 | 42 | 1011.0 |
| 20260508230010 | 68 | 258 | 4.3 | 6.1 | 0.00 | 0.00 | 0.00 | 40 | 1010.7 |
| 20260508225508 | 69 | 234 | 4.3 | 5.2 | 0.00 | 0.00 | 0.00 | 41 | 1010.8 |
| 20260508225004 | 69 | 212 | 4.3 | 5.2 | 0.00 | 0.00 | 0.00 | 39 | 1010.9 |
| 20260508224502 | 69 | 245 | 3.5 | 6.1 | 0.00 | 0.00 | 0.00 | 39 | 1011.0 |
| 20260508223959 | 69 | 246 | 4.3 | 7.8 | 0.00 | 0.00 | 0.00 | 40 | 1010.8 |
| 20260508223457 | 69 | 165 | 1.7 | 4.3 | 0.00 | 0.00 | 0.00 | 42 | 1010.8 |
| 20260508222954 | 69 | 208 | 5.2 | 7.8 | 0.00 | 0.00 | 0.00 | 39 | 1010.9 |
| 20260508222452 | 69 | 184 | 1.7 | 6.1 | 0.00 | 0.00 | 0.00 | 39 | 1010.9 |
| 20260508221948 | 69 | 246 | 4.3 | 7.0 | 0.00 | 0.00 | 0.00 | 39 | 1011.1 |
| 20260508221444 | 69 | 160 | 3.5 | 6.1 | 0.00 | 0.00 | 0.00 | 42 | 1010.7 |
| 20260508220940 | 69 | 206 | 4.3 | 5.2 | 0.00 | 0.00 | 0.00 | 39 | 1010.8 |
| 20260508220437 | 70 | 208 | 4.3 | 6.1 | 0.00 | 0.00 | 0.00 | 38 | 1011.1 |
| 20260508215933 | 70 | 205 | 2.6 | 5.2 | 0.00 | 0.00 | 0.00 | 40 | 1010.9 |
| 20260508215430 | 69 | 227 | 4.3 | 7.0 | 0.00 | 0.00 | 0.00 | 37 | 1010.9 |
| 20260508214927 | 69 | 192 | 2.6 | 7.8 | 0.00 | 0.00 | 0.00 | 40 | 1010.9 |
| 20260508214425 | 69 | 169 | 2.6 | 4.3 | 0.00 | 0.00 | 0.00 | 39 | 1011.1 |
| 20260508213920 | 69 | 216 | 3.5 | 6.1 | 0.00 | 0.00 | 0.00 | 38 | 1011.1 |
| 20260508213418 | 69 | 200 | 3.5 | 4.3 | 0.00 | 0.00 | 0.00 | 42 | 1011.1 |
| 20260508212913 | 69 | 187 | 1.7 | 6.1 | 0.00 | 0.00 | 0.00 | 38 | 1011.0 |
| 20260508212410 | 69 | 189 | 2.6 | 7.0 | 0.00 | 0.00 | 0.00 | 40 | 1011.2 |
| 20260508211906 | 69 | 211 | 4.3 | 5.2 | 0.00 | 0.00 | 0.00 | 39 | 1011.2 |
| 20260508211402 | 69 | 207 | 3.5 | 4.3 | 0.00 | 0.00 | 0.00 | 38 | 1011.3 |
| 20260508210900 | 69 | 203 | 2.6 | 2.6 | 0.00 | 0.00 | 0.00 | 38 | 1011.4 |
| 20260508210356 | 69 | 200 | 2.6 | 5.2 | 0.00 | 0.00 | 0.00 | 40 | 1011.5 |
| 20260508205852 | 69 | 213 | 5.2 | 7.0 | 0.00 | 0.00 | 0.00 | 39 | 1011.5 |
| 20260508205349 | 69 | 262 | 6.1 | 7.8 | 0.00 | 0.00 | 0.00 | 38 | 1011.4 |
| 20260508204845 | 68 | 170 | 3.5 | 5.2 | 0.00 | 0.00 | 0.00 | 40 | 1011.3 |
| 20260508204343 | 69 | 209 | 7.0 | 7.8 | 0.00 | 0.00 | 0.00 | 38 | 1011.7 |
| 20260508203838 | 69 | 171 | 3.5 | 8.7 | 0.00 | 0.00 | 0.00 | 39 | 1011.7 |
| 20260508203335 | 69 | 218 | 1.7 | 4.3 | 0.00 | 0.00 | 0.00 | 38 | 1011.6 |
| 20260508202830 | 69 | 158 | 1.7 | 2.6 | 0.00 | 0.00 | 0.00 | 38 | 1011.6 |
| 20260508202328 | 68 | 174 | 1.7 | 2.6 | 0.00 | 0.00 | 0.00 | 40 | 1011.7 |
| 20260508201825 | 68 | 198 | 4.3 | 7.8 | 0.00 | 0.00 | 0.00 | 36 | 1011.7 |
| 20260508201322 | 68 | 221 | 4.3 | 6.1 | 0.00 | 0.00 | 0.00 | 38 | 1011.8 |
| 20260508200818 | 68 | 239 | 6.1 | 7.8 | 0.00 | 0.00 | 0.00 | 38 | 1012.1 |
| 20260508200315 | 68 | 173 | 3.5 | 8.7 | 0.00 | 0.00 | 0.00 | 38 | 1012.0 |
| 20260508195811 | 67 | 194 | 2.6 | 7.0 | 0.00 | 0.00 | 0.00 | 41 | 1012.3 |
| 20260508195308 | 67 | 195 | 4.3 | 6.1 | 0.00 | 0.00 | 0.00 | 37 | 1012.5 |
| 20260508194804 | 68 | 140 | 5.2 | 9.6 | 0.00 | 0.00 | 0.00 | 39 | 1012.4 |
| 20260508194301 | 67 | 131 | 7.0 | 8.7 | 0.00 | 0.00 | 0.00 | 35 | 1012.5 |
| 20260508193758 | 68 | 214 | 6.1 | 7.8 | 0.00 | 0.00 | 0.00 | 39 | 1012.3 |
| 20260508193255 | 67 | 201 | 1.7 | 1.7 | 0.00 | 0.00 | 0.00 | 39 | 1012.6 |
| 20260508192751 | 67 | 157 | 2.6 | 8.7 | 0.00 | 0.00 | 0.00 | 40 | 1012.8 |
| 20260508192248 | 67 | 139 | 3.5 | 8.7 | 0.00 | 0.00 | 0.00 | 39 | 1012.7 |
| 20260508191746 | 67 | 154 | 3.5 | 6.1 | 0.00 | 0.00 | 0.00 | 40 | 1013.0 |
| 20260508191243 | 66 | 176 | 5.2 | 7.0 | 0.00 | 0.00 | 0.00 | 39 | 1012.8 |
| 20260508190740 | 66 | 217 | 5.2 | 7.8 | 0.00 | 0.00 | 0.00 | 41 | 1013.3 |
| 20260508190236 | 66 | 143 | 3.5 | 7.8 | 0.00 | 0.00 | 0.00 | 39 | 1013.3 |
| 20260508185732 | 66 | 207 | 2.6 | 7.0 | 0.00 | 0.00 | 0.00 | 38 | 1013.8 |
| 20260508185230 | 67 | 187 | 4.3 | 6.1 | 0.00 | 0.00 | 0.00 | 40 | 1013.9 |
| 20260508184727 | 66 | 111 | 0.0 | 5.2 | 0.00 | 0.00 | 0.00 | 45 | 1013.8 |
| 20260508184224 | 66 | 186 | 6.1 | 8.7 | 0.00 | 0.00 | 0.00 | 42 | 1013.9 |
| 20260508183721 | 65 | 199 | 3.5 | 5.2 | 0.00 | 0.00 | 0.00 | 40 | 1014.0 |
| 20260508183217 | 65 | 173 | 3.5 | 7.0 | 0.00 | 0.00 | 0.00 | 39 | 1014.1 |
| 20260508182713 | 65 | 167 | 2.6 | 7.8 | 0.00 | 0.00 | 0.00 | 44 | 1014.5 |
| 20260508182210 | 65 | 172 | 5.2 | 6.1 | 0.00 | 0.00 | 0.00 | 41 | 1014.3 |
| 20260508181706 | 65 | 139 | 5.2 | 7.0 | 0.00 | 0.00 | 0.00 | 41 | 1014.5 |
| 20260508181203 | 64 | 208 | 0.9 | 4.3 | 0.00 | 0.00 | 0.00 | 43 | 1014.4 |
| 20260508180700 | 65 | 158 | 6.1 | 7.8 | 0.00 | 0.00 | 0.00 | 40 | 1014.6 |
| 20260508180157 | 65 | 96 | 2.6 | 5.2 | 0.00 | 0.00 | 0.00 | 39 | 1014.7 |
| 20260508175653 | 66 | 152 | 4.3 | 6.1 | 0.00 | 0.00 | 0.00 | 40 | 1014.6 |
| 20260508175149 | 65 | 155 | 0.9 | 4.3 | 0.00 | 0.00 | 0.00 | 45 | 1014.8 |
| 20260508174648 | 65 | 146 | 2.6 | 6.1 | 0.00 | 0.00 | 0.00 | 43 | 1014.7 |
| 20260508174144 | 65 | 148 | 0.9 | 1.7 | 0.00 | 0.00 | 0.00 | 43 | 1015.0 |
| 20260508173641 | 64 | 85 | 0.9 | 5.2 | 0.00 | 0.00 | 0.00 | 46 | 1015.2 |
| 20260508173137 | 64 | 177 | 4.3 | 6.1 | 0.00 | 0.00 | 0.00 | 45 | 1015.3 |
| 20260508172634 | 63 | 181 | 1.7 | 6.1 | 0.00 | 0.00 | 0.00 | 47 | 1015.4 |
| 20260508172131 | 64 | 180 | 2.6 | 6.1 | 0.00 | 0.00 | 0.00 | 41 | 1015.7 |
| 20260508171627 | 64 | 169 | 1.7 | 2.6 | 0.00 | 0.00 | 0.00 | 44 | 1015.8 |
| 20260508171124 | 64 | 163 | 3.5 | 6.1 | 0.00 | 0.00 | 0.00 | 46 | 1015.9 |
| 20260508170621 | 64 | 112 | 1.7 | 5.2 | 0.00 | 0.00 | 0.00 | 45 | 1015.8 |
| 20260508170119 | 63 | 125 | 0.9 | 0.9 | 0.00 | 0.00 | 0.00 | 43 | 1015.8 |
| 20260508165616 | 63 | 220 | 2.6 | 2.6 | 0.00 | 0.00 | 0.00 | 46 | 1016.0 |
| 20260508165113 | 63 | 152 | 2.6 | 2.6 | 0.00 | 0.00 | 0.00 | 50 | 1016.0 |
| 20260508164609 | 63 | 150 | 0.9 | 0.9 | 0.00 | 0.00 | 0.00 | 45 | 1016.0 |
| 20260508164106 | 63 | 13 | 2.6 | 2.6 | 0.00 | 0.00 | 0.00 | 44 | 1016.2 |
| 20260508163603 | 62 | 106 | 0.9 | 5.2 | 0.00 | 0.00 | 0.00 | 50 | 1016.3 |
| 20260508163100 | 62 | 163 | 4.3 | 6.1 | 0.00 | 0.00 | 0.00 | 49 | 1016.2 |
| 20260508162556 | 62 | 171 | 1.7 | 2.6 | 0.00 | 0.00 | 0.00 | 52 | 1016.4 |
| 20260508162054 | 61 | 78 | 3.5 | 6.1 | 0.00 | 0.00 | 0.00 | 47 | 1016.8 |
| 20260508161550 | 62 | 195 | 4.3 | 6.1 | 0.00 | 0.00 | 0.00 | 48 | 1016.6 |
| 20260508161048 | 62 | 144 | 0.0 | 4.3 | 0.00 | 0.00 | 0.00 | 47 | 1016.8 |
| 20260508160546 | 61 | 110 | 1.7 | 1.7 | 0.00 | 0.00 | 0.00 | 49 | 1016.9 |
| 20260508160043 | 60 | 205 | 2.6 | 4.3 | 0.00 | 0.00 | 0.00 | 48 | 1017.1 |
| 20260508155540 | 60 | 207 | 2.6 | 2.6 | 0.00 | 0.00 | 0.00 | 50 | 1017.1 |
| 20260508155037 | 60 | 222 | 3.5 | 5.2 | 0.00 | 0.00 | 0.00 | 51 | 1017.3 |
| 20260508154534 | 60 | 188 | 3.5 | 4.3 | 0.00 | 0.00 | 0.00 | 53 | 1017.3 |
| 20260508154031 | 60 | 184 | 3.5 | 5.2 | 0.00 | 0.00 | 0.00 | 52 | 1017.3 |
| 20260508153527 | 60 | 150 | 4.3 | 5.2 | 0.00 | 0.00 | 0.00 | 51 | 1017.4 |
| 20260508153024 | 59 | 187 | 3.5 | 4.3 | 0.00 | 0.00 | 0.00 | 53 | 1017.4 |
| 20260508152521 | 59 | 169 | 1.7 | 1.7 | 0.00 | 0.00 | 0.00 | 54 | 1017.4 |
| 20260508152017 | 59 | 199 | 4.3 | 6.1 | 0.00 | 0.00 | 0.00 | 52 | 1017.6 |
| 20260508151514 | 58 | 201 | 2.6 | 4.3 | 0.00 | 0.00 | 0.00 | 52 | 1017.7 |
| 20260508151010 | 58 | 178 | 0.9 | 1.7 | 0.00 | 0.00 | 0.00 | 56 | 1017.6 |
| 20260508150508 | 58 | 154 | 0.0 | 1.7 | 0.00 | 0.00 | 0.00 | 55 | 1017.5 |
| 20260508150003 | 58 | 250 | 2.6 | 5.2 | 0.00 | 0.00 | 0.00 | 57 | 1017.5 |
| 20260508145500 | 58 | 203 | 3.5 | 5.2 | 0.00 | 0.00 | 0.00 | 56 | 1017.4 |
| 20260508144956 | 57 | 140 | 2.6 | 4.3 | 0.00 | 0.00 | 0.00 | 62 | 1017.6 |
| 20260508144454 | 57 | 136 | 2.6 | 5.2 | 0.00 | 0.00 | 0.00 | 66 | 1017.5 |
| 20260508143951 | 56 | 155 | 1.7 | 4.3 | 0.00 | 0.00 | 0.00 | 68 | 1017.6 |
| 20260508143449 | 55 | 167 | 0.9 | 1.7 | 0.00 | 0.00 | 0.00 | 72 | 1017.7 |
| 20260508142945 | 55 | 220 | 2.6 | 4.3 | 0.00 | 0.00 | 0.00 | 68 | 1017.7 |
| 20260508142442 | 55 | 213 | 2.6 | 4.3 | 0.00 | 0.00 | 0.00 | 70 | 1017.8 |
| 20260508141938 | 54 | 174 | 0.9 | 2.6 | 0.00 | 0.00 | 0.00 | 74 | 1017.8 |
| 20260508141435 | 54 | 168 | 2.6 | 4.3 | 0.00 | 0.00 | 0.00 | 73 | 1017.8 |
| 20260508140933 | 53 | 142 | 2.6 | 4.3 | 0.00 | 0.00 | 0.00 | 71 | 1018.0 |
| 20260508140430 | 53 | 146 | 2.6 | 5.2 | 0.00 | 0.00 | 0.00 | 71 | 1017.8 |
| 20260508135925 | 53 | 153 | 1.7 | 2.6 | 0.00 | 0.00 | 0.00 | 74 | 1017.9 |
| 20260508135422 | 52 | 188 | 1.7 | 5.2 | 0.00 | 0.00 | 0.00 | 73 | 1017.8 |
| 20260508134919 | 53 | 137 | 3.5 | 4.3 | 0.00 | 0.00 | 0.00 | 71 | 1017.8 |
| 20260508134415 | 53 | 169 | 1.7 | 1.7 | 0.00 | 0.00 | 0.00 | 75 | 1017.7 |
| 20260508133912 | 52 | 134 | 0.0 | 1.7 | 0.00 | 0.00 | 0.00 | 75 | 1017.5 |
| 20260508133410 | 53 | 157 | 0.9 | 1.7 | 0.00 | 0.00 | 0.00 | 76 | 1017.7 |
| 20260508132906 | 52 | 146 | 0.0 | 0.9 | 0.00 | 0.00 | 0.00 | 77 | 1017.6 |
| 20260508132405 | 52 | 148 | 0.9 | 0.9 | 0.00 | 0.00 | 0.00 | 77 | 1017.4 |
| 20260508131901 | 50 | 135 | 0.0 | 0.9 | 0.00 | 0.00 | 0.00 | 79 | 1017.5 |
| 20260508131356 | 49 | 147 | 0.0 | 0.9 | 0.00 | 0.00 | 0.00 | 85 | 1017.5 |
| 20260508130853 | 48 | 155 | 0.9 | 0.9 | 0.00 | 0.00 | 0.00 | 86 | 1017.3 |
| 20260508130350 | 49 | 147 | 0.0 | 0.9 | 0.00 | 0.00 | 0.00 | 87 | 1017.4 |
| 20260508125846 | 49 | 153 | 0.0 | 0.9 | 0.00 | 0.00 | 0.00 | 85 | 1017.4 |
| 20260508125342 | 49 | 121 | 0.0 | 0.0 | 0.00 | 0.00 | 0.00 | 90 | 1017.1 |
| 20260508124840 | 48 | 128 | 0.0 | 0.0 | 0.00 | 0.00 | 0.00 | 90 | 1017.4 |
| 20260508124337 | 48 | 125 | 0.0 | 0.9 | 0.00 | 0.00 | 0.00 | 92 | 1017.5 |
| 20260508123836 | 46 | 117 | 0.0 | 0.0 | 0.00 | 0.00 | 0.00 | 97 | 1017.4 |
| 20260508123334 | 44 | 126 | 0.0 | 0.0 | 0.00 | 0.00 | 0.00 | 99 | 1017.4 |
| 20260508122830 | 44 | 116 | 0.9 | 2.6 | 0.00 | 0.00 | 0.00 | 99 | 1017.1 |
| 20260508122327 | 43 | 109 | 0.9 | 2.6 | 0.00 | 0.00 | 0.00 | 99 | 1017.1 |
| 20260508121824 | 42 | 76 | 0.9 | 2.6 | 0.00 | 0.00 | 0.00 | 99 | 1017.0 |
| 20260508121322 | 42 | 87 | 2.6 | 2.6 | 0.00 | 0.00 | 0.00 | 99 | 1017.1 |
| 20260508120819 | 41 | 133 | 0.9 | 2.6 | 0.00 | 0.00 | 0.00 | 99 | 1017.0 |
| 20260508120317 | 41 | 90 | 1.7 | 1.7 | 0.00 | 0.00 | 0.00 | 99 | 1016.9 |
| 20260508115814 | 41 | 81 | 1.7 | 2.6 | 0.00 | 0.00 | 0.00 | 99 | 1017.0 |
| 20260508115312 | 41 | 65 | 0.9 | 1.7 | 0.00 | 0.00 | 0.00 | 99 | 1017.0 |
| 20260508114808 | 40 | 117 | 0.9 | 0.9 | 0.00 | 0.00 | 0.00 | 99 | 1016.9 |
| 20260508114305 | 39 | 114 | 0.9 | 0.9 | 0.00 | 0.00 | 0.00 | 99 | 1017.1 |
| 20260508113802 | 39 | 85 | 0.9 | 1.7 | 0.00 | 0.00 | 0.00 | 99 | 1016.9 |
| 20260508113300 | 40 | 80 | 0.0 | 0.9 | 0.00 | 0.00 | 0.00 | 99 | 1017.0 |
| 20260508112756 | 39 | 111 | 0.0 | 0.9 | 0.00 | 0.00 | 0.00 | 99 | 1016.9 |
| 20260508112253 | 39 | 118 | 0.0 | 0.0 | 0.00 | 0.00 | 0.00 | 99 | 1016.9 |
| 20260508111749 | 39 | 139 | 0.0 | 0.0 | 0.00 | 0.00 | 0.00 | 99 | 1016.5 |
| 20260508111247 | 39 | 135 | 0.0 | 1.7 | 0.00 | 0.00 | 0.00 | 99 | 1016.5 |
| 20260508110744 | 39 | 130 | 0.0 | 0.0 | 0.00 | 0.00 | 0.00 | 99 | 1016.6 |
| 20260508110242 | 39 | 117 | 0.0 | 0.0 | 0.00 | 0.00 | 0.00 | 99 | 1016.7 |
| 20260508105741 | 39 | 151 | 0.9 | 0.9 | 0.00 | 0.00 | 0.00 | 99 | 1016.6 |
| 20260508105238 | 39 | 131 | 0.0 | 0.9 | 0.00 | 0.00 | 0.00 | 99 | 1016.4 |
| 20260508104736 | 39 | 120 | 0.9 | 0.9 | 0.00 | 0.00 | 0.00 | 99 | 1016.4 |
| 20260508104233 | 39 | 143 | 0.0 | 0.0 | 0.00 | 0.00 | 0.00 | 99 | 1016.1 |
| 20260508103730 | 40 | 117 | 0.0 | 0.0 | 0.00 | 0.00 | 0.00 | 99 | 1016.3 |
| 20260508103227 | 39 | 125 | 0.0 | 0.0 | 0.00 | 0.00 | 0.00 | 99 | 1016.2 |
| 20260508102724 | 39 | 123 | 0.0 | 0.0 | 0.00 | 0.00 | 0.00 | 99 | 1016.2 |
| 20260508102222 | 39 | 133 | 0.0 | 0.0 | 0.00 | 0.00 | 0.00 | 99 | 1016.2 |
| 20260508101719 | 39 | 123 | 0.0 | 0.0 | 0.00 | 0.00 | 0.00 | 99 | 1015.9 |
| 20260508101217 | 38 | 108 | 0.0 | 0.0 | 0.00 | 0.00 | 0.00 | 99 | 1016.0 |
| 20260508100714 | 38 | 104 | 0.0 | 0.0 | 0.00 | 0.00 | 0.00 | 99 | 1015.9 |
| 20260508100212 | 38 | 132 | 0.0 | 0.0 | 0.00 | 0.00 | 0.00 | 99 | 1016.0 |
| 20260508095708 | 38 | 104 | 0.9 | 1.7 | 0.00 | 0.00 | 0.00 | 99 | 1015.9 |
| 20260508095206 | 37 | 99 | 0.0 | 0.9 | 0.00 | 0.00 | 0.00 | 99 | 1016.0 |
| 20260508094702 | 37 | 143 | 0.0 | 0.0 | 0.00 | 0.00 | 0.00 | 99 | 1015.9 |
| 20260508094159 | 37 | 125 | 0.0 | 0.0 | 0.00 | 0.00 | 0.00 | 99 | 1015.9 |
| 20260508093656 | 37 | 87 | 0.0 | 0.0 | 0.00 | 0.00 | 0.00 | 99 | 1015.9 |
| 20260508093154 | 37 | 105 | 0.0 | 0.0 | 0.00 | 0.00 | 0.00 | 99 | 1015.9 |
| 20260508092650 | 38 | 81 | 0.0 | 0.0 | 0.00 | 0.00 | 0.00 | 99 | 1015.8 |
| 20260508092149 | 39 | 113 | 0.0 | 0.0 | 0.00 | 0.00 | 0.00 | 99 | 1016.0 |
| 20260508091646 | 39 | 102 | 0.0 | 0.0 | 0.00 | 0.00 | 0.00 | 99 | 1016.0 |
| 20260508091143 | 38 | 106 | 0.0 | 0.0 | 0.00 | 0.00 | 0.00 | 99 | 1015.9 |
| 20260508090641 | 39 | 88 | 0.0 | 0.0 | 0.00 | 0.00 | 0.00 | 99 | 1015.8 |
| 20260508090138 | 39 | 90 | 0.0 | 0.0 | 0.00 | 0.00 | 0.00 | 99 | 1015.9 |
| 20260508085634 | 39 | 96 | 0.0 | 0.0 | 0.00 | 0.00 | 0.00 | 99 | 1016.1 |
| 20260508085131 | 39 | 95 | 0.0 | 0.0 | 0.00 | 0.00 | 0.00 | 99 | 1016.0 |
| 20260508084627 | 39 | 103 | 0.0 | 0.0 | 0.00 | 0.00 | 0.00 | 99 | 1016.0 |
| 20260508084125 | 39 | 129 | 0.0 | 0.0 | 0.00 | 0.00 | 0.00 | 99 | 1015.9 |
| 20260508083622 | 39 | 128 | 0.0 | 0.0 | 0.00 | 0.00 | 0.00 | 99 | 1016.0 |
| 20260508083119 | 39 | 119 | 0.0 | 0.0 | 0.00 | 0.00 | 0.00 | 99 | 1015.9 |
| 20260508082615 | 39 | 108 | 0.0 | 0.0 | 0.00 | 0.00 | 0.00 | 99 | 1015.9 |
| 20260508082112 | 39 | 143 | 0.0 | 0.0 | 0.00 | 0.00 | 0.00 | 99 | 1015.9 |
| 20260508081609 | 39 | 144 | 0.0 | 0.0 | 0.00 | 0.00 | 0.00 | 99 | 1015.7 |
| 20260508081106 | 39 | 143 | 0.0 | 0.0 | 0.00 | 0.00 | 0.00 | 99 | 1016.0 |
| 20260508080604 | 39 | 144 | 0.0 | 0.0 | 0.00 | 0.00 | 0.00 | 99 | 1015.9 |
| 20260508080101 | 39 | 144 | 0.0 | 0.0 | 0.00 | 0.00 | 0.00 | 99 | 1015.8 |
| 20260508075557 | 39 | 128 | 0.0 | 0.0 | 0.00 | 0.00 | 0.00 | 99 | 1015.8 |
| 20260508075055 | 39 | 134 | 0.0 | 0.0 | 0.00 | 0.00 | 0.00 | 99 | 1015.9 |
| 20260508074552 | 40 | 147 | 0.0 | 0.0 | 0.00 | 0.00 | 0.00 | 99 | 1015.9 |
| 20260508074049 | 40 | 130 | 0.0 | 0.0 | 0.00 | 0.00 | 0.00 | 99 | 1015.9 |
| 20260508073546 | 40 | 114 | 0.0 | 0.0 | 0.00 | 0.00 | 0.00 | 99 | 1015.7 |
| 20260508073044 | 40 | 119 | 0.0 | 0.0 | 0.00 | 0.00 | 0.00 | 99 | 1015.9 |
| 20260508072539 | 40 | 133 | 0.0 | 0.0 | 0.00 | 0.00 | 0.00 | 99 | 1015.9 |
| 20260508072037 | 40 | 113 | 0.0 | 0.0 | 0.00 | 0.00 | 0.00 | 99 | 1015.9 |
| 20260508071535 | 40 | 155 | 0.0 | 0.0 | 0.00 | 0.00 | 0.00 | 99 | 1015.9 |
| 20260508071032 | 41 | 155 | 0.0 | 0.0 | 0.00 | 0.00 | 0.00 | 99 | 1015.8 |
| 20260508070530 | 42 | 128 | 0.0 | 0.0 | 0.00 | 0.00 | 0.00 | 99 | 1015.9 |
| 20260508070028 | 41 | 93 | 0.0 | 0.0 | 0.00 | 0.00 | 0.00 | 99 | 1016.1 |
| 20260508065525 | 41 | 127 | 0.0 | 0.0 | 0.00 | 0.00 | 0.00 | 99 | 1015.9 |
| 20260508065023 | 41 | 127 | 0.0 | 0.0 | 0.00 | 0.00 | 0.00 | 99 | 1015.8 |
| 20260508064520 | 41 | 123 | 0.0 | 0.0 | 0.00 | 0.00 | 0.00 | 99 | 1015.7 |
| 20260508064018 | 41 | 99 | 0.0 | 0.0 | 0.00 | 0.00 | 0.00 | 99 | 1015.8 |
| 20260508063515 | 41 | 102 | 0.0 | 0.0 | 0.00 | 0.00 | 0.00 | 99 | 1016.1 |
| 20260508063013 | 41 | 139 | 0.0 | 0.0 | 0.00 | 0.00 | 0.00 | 99 | 1015.8 |
| 20260508062511 | 41 | 139 | 0.0 | 0.0 | 0.00 | 0.00 | 0.00 | 99 | 1016.2 |
| 20260508062007 | 41 | 129 | 0.0 | 0.0 | 0.00 | 0.00 | 0.00 | 99 | 1016.2 |
| 20260508061505 | 41 | 127 | 0.0 | 0.0 | 0.00 | 0.00 | 0.00 | 99 | 1016.0 |
| 20260508061001 | 41 | 131 | 0.0 | 0.0 | 0.00 | 0.00 | 0.00 | 99 | 1015.9 |
| 20260508060458 | 41 | 146 | 0.0 | 0.0 | 0.00 | 0.00 | 0.00 | 99 | 1015.9 |
| 20260508055954 | 41 | 147 | 0.0 | 0.0 | 0.00 | 0.00 | 0.00 | 99 | 1015.9 |
| 20260508055452 | 40 | 163 | 0.0 | 0.0 | 0.00 | 0.00 | 0.00 | 99 | 1015.7 |
| 20260508054948 | 42 | 152 | 0.0 | 0.0 | 0.00 | 0.00 | 0.00 | 99 | 1016.1 |
| 20260508054445 | 42 | 150 | 0.0 | 0.0 | 0.00 | 0.00 | 0.00 | 99 | 1016.0 |
| 20260508053942 | 42 | 115 | 0.0 | 0.0 | 0.00 | 0.00 | 0.00 | 99 | 1016.1 |
| 20260508053439 | 42 | 134 | 0.0 | 0.0 | 0.00 | 0.00 | 0.00 | 99 | 1015.9 |
| 20260508052937 | 43 | 134 | 0.0 | 0.0 | 0.00 | 0.00 | 0.00 | 99 | 1015.9 |
| 20260508052434 | 43 | 125 | 0.0 | 0.0 | 0.00 | 0.00 | 0.00 | 99 | 1016.0 |
| 20260508051930 | 42 | 78 | 0.0 | 0.0 | 0.00 | 0.00 | 0.00 | 99 | 1016.4 |
| 20260508051426 | 42 | 111 | 0.0 | 0.0 | 0.00 | 0.00 | 0.00 | 99 | 1016.1 |
| 20260508050922 | 43 | 131 | 0.0 | 0.0 | 0.00 | 0.00 | 0.00 | 99 | 1016.2 |
| 20260508050419 | 43 | 131 | 0.0 | 0.0 | 0.00 | 0.00 | 0.00 | 99 | 1016.2 |
| 20260508045915 | 43 | 130 | 0.0 | 0.0 | 0.00 | 0.00 | 0.00 | 99 | 1016.0 |
| 20260508045413 | 42 | 129 | 0.0 | 0.0 | 0.00 | 0.00 | 0.00 | 99 | 1016.2 |
| 20260508044910 | 42 | 137 | 0.0 | 0.0 | 0.00 | 0.00 | 0.00 | 99 | 1016.1 |
| 20260508044408 | 42 | 137 | 0.0 | 0.0 | 0.00 | 0.00 | 0.00 | 99 | 1016.2 |
| 20260508043902 | 42 | 138 | 0.0 | 0.0 | 0.00 | 0.00 | 0.00 | 97 | 1016.2 |
| 20260508043400 | 43 | 138 | 0.0 | 0.0 | 0.00 | 0.00 | 0.00 | 96 | 1016.0 |
| 20260508042856 | 43 | 138 | 0.0 | 0.0 | 0.00 | 0.00 | 0.00 | 96 | 1016.3 |
| 20260508042354 | 43 | 111 | 0.0 | 0.0 | 0.00 | 0.00 | 0.00 | 97 | 1016.0 |
| 20260508041851 | 43 | 139 | 0.0 | 0.0 | 0.00 | 0.00 | 0.00 | 96 | 1015.7 |
| 20260508041347 | 43 | 139 | 0.0 | 0.0 | 0.00 | 0.00 | 0.00 | 96 | 1015.9 |
| 20260508040844 | 43 | 135 | 0.0 | 0.0 | 0.00 | 0.00 | 0.00 | 94 | 1015.7 |
| 20260508040341 | 44 | 135 | 0.0 | 0.0 | 0.00 | 0.00 | 0.00 | 92 | 1015.6 |
| 20260508035839 | 44 | 138 | 0.0 | 0.0 | 0.00 | 0.00 | 0.00 | 90 | 1015.7 |
| 20260508035336 | 45 | 145 | 0.0 | 0.0 | 0.00 | 0.00 | 0.00 | 88 | 1015.7 |
| 20260508034833 | 45 | 118 | 0.0 | 0.0 | 0.00 | 0.00 | 0.00 | 87 | 1015.5 |
| 20260508034330 | 44 | 139 | 0.0 | 0.0 | 0.00 | 0.00 | 0.00 | 86 | 1015.5 |
| 20260508033826 | 44 | 123 | 0.0 | 0.0 | 0.00 | 0.00 | 0.00 | 85 | 1015.5 |
| 20260508033325 | 45 | 125 | 0.0 | 0.0 | 0.00 | 0.00 | 0.00 | 84 | 1015.5 |
| 20260508032822 | 46 | 125 | 0.0 | 0.0 | 0.00 | 0.00 | 0.00 | 82 | 1015.2 |